Strona główna
METAR-TAF:

METAR-TAF

Lotnisko :

Churchill Falls, Nowa Fundlandia i Labrador, Kanada

Szerokość geograficzna: 53-33N, Długość geograficzna: 064-06W, wysokość: 440 m

Aktualna obserwacja pogody

Raport powstał 40 minut temu, godzina 06:00 UTC
Wiatr 9 kt od zachód, zmienny między południowy zachód i zachód
Temperatura -28°C
Wilgotność 62%
Ciśnienie 1022 hPa
Widzialność: 14.5 km
bezchmurnie

METAR: CZUM 130600Z AUTO 26009KT 220V280 9SM CLR M28/M33 A3018 RMK SLP282

czas: 02:40 (06:40 UTC)

Prognoza

Raport powstał 5 godziny i 2 minut temu, godzina 01:38 UTC
Prognoza ważna od 13 godzina 02 UTC do 13 godzina 14 UTC
Wiatr 7 kt od zachód
Widzialność: 10 km
bezchmurnie
Przejściowo
od 13 godzina 02 UTC do 13 godzina 14 UTC
Widzialność: 6.4 km
igiełki lodu
Stopniowe zmiany
od 13 godzina 03 UTC do 13 godzina 05 UTC
Wiatr 12 kt od zachód w porywach dochodzący do 22 kt

TAF: CZUM 130138Z 1302/1314 27007KT P6SM SKC TEMPO 1302/1314 4SM IC BECMG 1303/1305 27012G22KT RMK FCST BASED ON AUTO OBS. NXT FCST BY 130800Z

Obserwacja i prognoza pogody dla ponad 4000 lotnisk (raport METAR i TAF).

Dostępne stacje oznaczono żółtymi i czerwonymi punktami na mapie.

Najedź kursorem aby zobaczyć nazwę stacji.

Kliknij aby zobaczyć obserwacje i prognozy pogody.

Aby zmienić mapę: kliknij na zielony przycisk z czarnym krzyżykiem, aby powiększyć; na zielony przycisk z myślnikiem, aby pomniejszyć; na zielone strzałki, aby przejść do map sąsiednich.


METAR-TAF: